• Join FlightAware (Why Join?)
  • Login
  • US Flag 
12:06AM EDT


 

Airport Tracker/Info


-or-


 

Live Flight TrackerFlight Track Log ✈ MSR962 ✈ 09-May-2013 ✈ HECA / CAI - RJBB / KIX

Flight Track Log - Related Links

Times and Time Zones

All times are in EDT time to prevent confusion due to time zone crossing. See the MSR962 flight status page for this flight to view local times or setup timezone preferences in your user account.

Time Position Orientation Groundspeed Altitude Reporting Facility
EDT Latitude Longitude Course Direction KTS MPH feet Rate Location/Type
06:23PM 32.6380 32.1070 46° Northeast 483 556 37,700  Level FlightAware
06:24PM 32.7040 32.2030 51° Northeast 486 559 38,000 180 Climbing FlightAware
06:25PM 32.7690 32.3110 54° Northeast 489 563 38,000  Level FlightAware
06:26PM 32.9120 32.4420 38° Northeast 519 597 38,000  Level FlightAware
06:26PM 32.9870 32.5180 40° Northeast 523 602 38,000  Level FlightAware
06:27PM 33.0720 32.6030 40° Northeast 517 595 38,000  Level FlightAware
06:28PM 33.1430 32.6760 41° Northeast 516 594 38,000  Level FlightAware
06:28PM 33.2170 32.7510 40° Northeast 516 594 38,000  Level FlightAware
06:29PM 33.3030 32.8380 40° Northeast 516 594 38,000  Level FlightAware
06:30PM 33.3770 32.9140 41° Northeast 518 596 38,000  Level FlightAware
06:31PM 33.4590 32.9980 41° Northeast 518 596 38,000  Level FlightAware
06:31PM 33.5330 33.0740 41° Northeast 515 593 38,000  Level FlightAware
06:32PM 33.6080 33.1510 41° Northeast 515 593 38,000  Level FlightAware
06:33PM 33.6820 33.2280 41° Northeast 518 596 38,000  Level FlightAware
06:34PM 33.8290 33.3800 41° Northeast 517 595 38,000  Level FlightAware
06:35PM 33.9440 33.5510 51° Northeast 517 595 38,000  Level FlightAware
06:36PM 34.0000 33.6440 54° Northeast 517 595 38,000  Level FlightAware
06:37PM 34.0550 33.7370 54° Northeast 518 596 38,000  Level FlightAware
06:37PM 34.1190 33.8430 54° Northeast 512 589 38,000  Level FlightAware
06:38PM 34.1740 33.9360 54° Northeast 509 586 38,000  Level FlightAware
06:39PM 34.2300 34.0320 55° Northeast 507 583 38,000  Level FlightAware
06:39PM 34.2970 34.1460 55° Northeast 510 587 38,000  Level FlightAware
06:40PM 34.3480 34.2350 55° Northeast 509 586 38,000  Level FlightAware
06:41PM 34.4090 34.3390 55° Northeast 509 586 38,000  Level FlightAware
06:42PM 34.4640 34.4330 55° Northeast 511 588 38,000  Level FlightAware
06:42PM 34.5260 34.5410 55° Northeast 512 589 38,000  Level FlightAware
06:43PM 34.5810 34.6360 55° Northeast 512 589 38,000  Level FlightAware
06:44PM 34.6240 34.7120 55° Northeast 514 592 38,000  Level FlightAware
06:44PM 34.6660 34.7850 55° Northeast 513 590 38,000  Level FlightAware
06:45PM 34.7070 34.8560 55° Northeast 513 590 38,000  Level FlightAware
06:45PM 34.7740 34.9720 55° Northeast 512 589 38,000  Level FlightAware
06:46PM 34.8200 35.0530 55° Northeast 512 589 38,000  Level FlightAware
06:47PM 34.9000 35.1950 55° Northeast 519 597 38,000  Level FlightAware
06:48PM 34.9590 35.2960 55° Northeast 519 597 38,000  Level FlightAware
06:48PM 35.0050 35.3780 56° Northeast 519 597 38,000  Level FlightAware
06:49PM 35.0520 35.4600 55° Northeast 519 597 38,000  Level FlightAware
06:50PM 35.0990 35.5420 55° Northeast 519 597 38,000  Level FlightAware
06:50PM 35.1460 35.6230 55° Northeast 519 597 38,000  Level FlightAware
06:51PM 35.2040 35.7260 55° Northeast 519 597 38,000  Level FlightAware
06:52PM 35.2510 35.8070 55° Northeast 519 597 38,000  Level FlightAware
06:53PM 35.2980 35.8890 55° Northeast 519 597 38,000  Level FlightAware
06:53PM 35.3450 35.9710 55° Northeast 519 597 38,000  Level FlightAware
06:54PM 35.3920 36.0530 55° Northeast 519 597 38,000  Level FlightAware
06:55PM 35.4500 36.1560 55° Northeast 519 597 38,000  Level FlightAware
06:55PM 35.4970 36.2380 55° Northeast 519 597 38,000  Level FlightAware
06:56PM 35.5440 36.3200 55° Northeast 519 597 38,000  Level FlightAware
06:59PM 35.7191 36.6498 57° Northeast  Level Estimated
07:00PM 35.7923 36.7886 57° Northeast  Level Estimated
07:01PM 35.8654 36.9276 57° Northeast  Level Estimated
07:02PM 35.9383 37.0669 57° Northeast  Level Estimated
07:03PM 36.0110 37.2065 57° Northeast  Level Estimated
07:04PM 36.0836 37.3463 57° Northeast  Level Estimated
07:05PM 36.1560 37.4864 57° Northeast  Level Estimated
07:06PM 36.2282 37.6267 57° Northeast  Level Estimated
07:07PM 36.3003 37.7673 58° Northeast  Level Estimated
07:08PM 36.3722 37.9081 58° Northeast  Level Estimated
07:09PM 36.4440 38.0492 58° Northeast  Level Estimated
07:10PM 36.5155 38.1906 58° Northeast  Level Estimated
07:11PM 36.5870 38.3322 58° Northeast  Level Estimated
07:12PM 36.6582 38.4742 58° Northeast  Level Estimated
07:13PM 36.7293 38.6163 58° Northeast  Level Estimated
07:14PM 36.8002 38.7587 58° Northeast  Level Estimated
07:15PM 36.8709 38.9014 58° Northeast  Level Estimated
07:16PM 36.9415 39.0444 58° Northeast  Level Estimated
07:17PM 37.0119 39.1876 58° Northeast  Level Estimated
07:18PM 37.0821 39.3311 58° Northeast  Level Estimated
07:19PM 37.1522 39.4748 59° Northeast  Level Estimated
07:20PM 37.2221 39.6188 59° Northeast  Level Estimated
07:21PM 37.2918 39.7631 59° Northeast  Level Estimated
07:22PM 37.3613 39.9077 59° Northeast  Level Estimated
07:23PM 37.4306 40.0525 59° Northeast  Level Estimated
07:24PM 37.4998 40.1976 59° Northeast  Level Estimated
07:25PM 37.5688 40.3429 59° Northeast  Level Estimated
07:26PM 37.6376 40.4885 59° Northeast  Level Estimated
07:27PM 37.7063 40.6344 59° Northeast  Level Estimated
07:28PM 37.7747 40.7806 59° Northeast  Level Estimated
07:29PM 37.8430 40.9270 59° Northeast  Level Estimated
07:30PM 37.9111 41.0737 59° Northeast  Level Estimated
07:31PM 37.9790 41.2207 60° Northeast  Level Estimated
07:32PM 38.0468 41.3679 60° Northeast  Level Estimated
07:33PM 38.1143 41.5154 60° Northeast  Level Estimated
07:34PM 38.1817 41.6632 60° Northeast  Level Estimated
07:35PM 38.2489 41.8113 60° Northeast  Level Estimated
07:36PM 38.3158 41.9596 60° Northeast  Level Estimated
07:37PM 38.3826 42.1082 60° Northeast  Level Estimated
07:38PM 38.4492 42.2571 60° Northeast  Level Estimated
07:39PM 38.5157 42.4063 60° Northeast  Level Estimated
07:40PM 38.5819 42.5557 60° Northeast  Level Estimated
07:41PM 38.6480 42.7054 61° Northeast  Level Estimated
07:42PM 38.7138 42.8554 61° Northeast  Level Estimated
07:43PM 38.7795 43.0057 61° Northeast  Level Estimated
07:44PM 38.8450 43.1562 61° Northeast  Level Estimated
07:45PM 38.9102 43.3071 61° Northeast  Level Estimated
07:46PM 38.9753 43.4581 61° Northeast  Level Estimated
07:47PM 39.0402 43.6095 61° Northeast  Level Estimated
07:48PM 39.1049 43.7612 61° Northeast  Level Estimated
07:49PM 39.1694 43.9131 61° Northeast  Level Estimated
07:50PM 39.2337 44.0653 61° Northeast  Level Estimated
07:51PM 39.2978 44.2178 61° Northeast  Level Estimated
07:52PM 39.3617 44.3706 62° Northeast  Level Estimated
07:53PM 39.4254 44.5236 62° Northeast  Level Estimated
07:54PM 39.4889 44.6769 62° Northeast  Level Estimated
07:55PM 39.5522 44.8305 62° Northeast  Level Estimated
07:56PM 39.6153 44.9844 62° Northeast  Level Estimated
07:57PM 39.6782 45.1386 62° Northeast  Level Estimated
07:58PM 39.7408 45.2930 62° Northeast  Level Estimated
07:59PM 39.8033 45.4477 62° Northeast  Level Estimated
08:00PM 39.8656 45.6027 62° Northeast  Level Estimated
08:01PM 39.9277 45.7580 62° Northeast  Level Estimated
08:02PM 39.9895 45.9136 63° Northeast  Level Estimated
08:03PM 40.0512 46.0695 63° Northeast  Level Estimated
08:04PM 40.1126 46.2256 63° Northeast  Level Estimated
08:05PM 40.1739 46.3820 63° Northeast  Level Estimated
08:06PM 40.2349 46.5387 63° Northeast  Level Estimated
08:07PM 40.2957 46.6957 63° Northeast  Level Estimated
08:08PM 40.3563 46.8529 63° Northeast  Level Estimated
08:09PM 40.4167 47.0105 63° Northeast  Level Estimated
08:10PM 40.4768 47.1683 63° Northeast  Level Estimated
08:11PM 40.5368 47.3264 63° Northeast  Level Estimated
08:12PM 40.5965 47.4848 64° Northeast  Level Estimated
08:13PM 40.6561 47.6435 64° Northeast  Level Estimated
08:14PM 40.7154 47.8024 64° Northeast  Level Estimated
08:15PM 40.7744 47.9617 64° Northeast  Level Estimated
08:16PM 40.8333 48.1212 64° Northeast  Level Estimated
08:17PM 40.8920 48.2810 64° Northeast  Level Estimated
08:18PM 40.9504 48.4411 64° Northeast  Level Estimated
08:19PM 41.0086 48.6015 64° Northeast  Level Estimated
08:20PM 41.0666 48.7621 64° Northeast  Level Estimated
08:21PM 41.1243 48.9230 64° Northeast  Level Estimated
08:22PM 41.1819 49.0843 65° Northeast  Level Estimated
08:23PM 41.2392 49.2458 65° Northeast  Level Estimated
08:24PM 41.2963 49.4076 65° Northeast  Level Estimated
08:25PM 41.3531 49.5696 65° Northeast  Level Estimated
08:26PM 41.4098 49.7320 65° Northeast  Level Estimated
08:27PM 41.4661 49.8946 65° Northeast  Level Estimated
08:28PM 41.5223 50.0575 65° Northeast  Level Estimated
08:29PM 41.5783 50.2207 65° Northeast  Level Estimated
08:30PM 41.6340 50.3842 65° Northeast  Level Estimated
08:31PM 41.6894 50.5480 66° East  Level Estimated
08:32PM 41.7447 50.7120 66° East  Level Estimated
08:33PM 41.7997 50.8764 66° East  Level Estimated
08:34PM 41.8545 51.0410 66° East  Level Estimated
08:35PM 41.9090 51.2058 66° East  Level Estimated
08:36PM 41.9633 51.3710 66° East  Level Estimated
08:37PM 42.0174 51.5365 66° East  Level Estimated
08:38PM 42.0712 51.7022 66° East  Level Estimated
08:39PM 42.1248 51.8682 66° East  Level Estimated
08:40PM 42.1782 52.0345 67° East  Level Estimated
08:40PM 42.9760 51.3970 67° East 511 588 39,000  Level FlightAware
08:41PM 42.2313 52.2011 67° East  Level Estimated
08:41PM 43.0270 51.5030 57° Northeast 511 588 39,000  Level FlightAware
08:41PM 43.0800 51.6100 56° Northeast 510 587 39,000  Level FlightAware
08:42PM 43.1260 51.7050 56° Northeast 507 583 39,000  Level FlightAware
08:43PM 43.1790 51.8130 56° Northeast 507 583 39,000  Level FlightAware
08:43PM 43.2350 51.9270 56° Northeast 507 583 39,000  Level FlightAware
08:44PM 43.2790 52.0180 56° Northeast 507 583 39,000  Level FlightAware
08:45PM 43.3240 52.1080 55° Northeast 507 583 39,000  Level FlightAware
08:45PM 43.3690 52.1990 56° Northeast 507 583 39,000  Level FlightAware
08:46PM 43.4130 52.2900 56° Northeast 507 583 39,000  Level FlightAware
08:47PM 43.4690 52.4040 56° Northeast 507 583 39,000  Level FlightAware
08:48PM 43.5140 52.4950 56° Northeast 507 583 39,000  Level FlightAware
08:48PM 43.5580 52.5860 56° Northeast 507 583 39,000  Level FlightAware
08:49PM 43.6030 52.6780 56° Northeast 507 583 39,000  Level FlightAware
08:50PM 43.6470 52.7690 56° Northeast 507 583 39,000  Level FlightAware
08:50PM 43.7030 52.8830 56° Northeast 507 583 39,000  Level FlightAware
08:51PM 43.7480 52.9750 56° Northeast 507 583 39,000  Level FlightAware
08:52PM 43.7920 53.0660 56° Northeast 507 583 39,000  Level FlightAware
08:54PM 43.8781 53.3626 68° East  Level Estimated
08:55PM 43.9278 53.5358 68° East  Level Estimated
08:56PM 43.9774 53.7092 68° East  Level Estimated
08:57PM 44.0266 53.8830 68° East  Level Estimated
08:58PM 44.0756 54.0570 69° East  Level Estimated
08:59PM 44.1243 54.2313 69° East  Level Estimated
09:00PM 44.1728 54.4059 69° East  Level Estimated
09:01PM 44.2210 54.5808 69° East  Level Estimated
09:02PM 44.2689 54.7560 69° East  Level Estimated
09:03PM 44.3166 54.9315 69° East  Level Estimated
09:04PM 44.3640 55.1073 69° East  Level Estimated
09:05PM 44.4111 55.2833 69° East  Level Estimated
09:06PM 44.4580 55.4596 70° East  Level Estimated
09:07PM 44.5045 55.6362 70° East  Level Estimated
09:08PM 44.5508 55.8131 70° East  Level Estimated
09:09PM 44.5969 55.9902 70° East  Level Estimated
09:10PM 44.6426 56.1677 70° East  Level Estimated
09:11PM 44.6881 56.3454 70° East  Level Estimated
09:12PM 44.7333 56.5234 70° East  Level Estimated
09:13PM 44.7783 56.7017 70° East  Level Estimated
09:14PM 44.8229 56.8802 71° East  Level Estimated
09:15PM 44.8673 57.0591 71° East  Level Estimated
09:16PM 44.9114 57.2382 71° East  Level Estimated
09:17PM 44.9552 57.4176 71° East  Level Estimated
09:18PM 44.9987 57.5972 71° East  Level Estimated
09:19PM 45.0420 57.7772 71° East  Level Estimated
09:20PM 45.0849 57.9574 71° East  Level Estimated
09:21PM 45.1276 58.1378 71° East  Level Estimated
09:22PM 45.1700 58.3186 72° East  Level Estimated
09:23PM 45.2121 58.4996 72° East  Level Estimated
09:24PM 45.2539 58.6809 72° East  Level Estimated
09:25PM 45.2955 58.8624 72° East  Level Estimated
09:26PM 45.3367 59.0442 72° East  Level Estimated
09:27PM 45.3777 59.2263 72° East  Level Estimated
09:28PM 45.4184 59.4086 72° East  Level Estimated
09:29PM 45.4587 59.5912 72° East  Level Estimated
09:30PM 45.4988 59.7741 73° East  Level Estimated
09:31PM 45.5386 59.9572 73° East  Level Estimated
09:32PM 45.5781 60.1405 73° East  Level Estimated
09:33PM 45.6174 60.3242 73° East  Level Estimated
09:34PM 45.6563 60.5081 73° East  Level Estimated
09:35PM 45.6949 60.6922 73° East  Level Estimated
09:36PM 45.7332 60.8766 73° East  Level Estimated
09:37PM 45.7713 61.0613 73° East  Level Estimated
09:38PM 45.8090 61.2462 74° East  Level Estimated
09:39PM 45.8464 61.4313 74° East  Level Estimated
09:40PM 45.8835 61.6167 74° East  Level Estimated
09:41PM 45.9204 61.8023 74° East  Level Estimated
09:42PM 45.9569 61.9882 74° East  Level Estimated
09:43PM 45.9931 62.1744 74° East  Level Estimated
09:44PM 46.0291 62.3607 74° East  Level Estimated
09:45PM 46.0647 62.5474 75° East  Level Estimated
09:46PM 46.1000 62.7342 75° East  Level Estimated
09:47PM 46.1350 62.9213 75° East  Level Estimated
09:48PM 46.1697 63.1087 75° East  Level Estimated
09:49PM 46.2041 63.2962 75° East  Level Estimated
09:50PM 46.2382 63.4840 75° East  Level Estimated
09:51PM 46.2720 63.6721 75° East  Level Estimated
09:52PM 46.3055 63.8603 76° East  Level Estimated
09:53PM 46.3387 64.0488 76° East  Level Estimated
09:54PM 46.3715 64.2376 76° East  Level Estimated
09:55PM 46.4041 64.4265 76° East  Level Estimated
09:56PM 46.4363 64.6157 76° East  Level Estimated
09:57PM 46.4683 64.8051 76° East  Level Estimated
09:58PM 46.4999 64.9947 76° East  Level Estimated
09:59PM 46.5312 65.1845 76° East  Level Estimated
10:00PM 46.5621 65.3746 77° East  Level Estimated
10:01PM 46.5928 65.5649 77° East  Level Estimated
10:02PM 46.6232 65.7554 77° East  Level Estimated
10:03PM 46.6532 65.9461 77° East  Level Estimated
10:04PM 46.6829 66.1370 77° East  Level Estimated
10:05PM 46.7123 66.3281 77° East  Level Estimated
10:06PM 46.7414 66.5194 77° East  Level Estimated
10:07PM 46.7702 66.7110 78° East  Level Estimated
10:08PM 46.7986 66.9027 78° East  Level Estimated
10:09PM 46.8267 67.0946 78° East  Level Estimated
10:10PM 46.8545 67.2868 78° East  Level Estimated
10:11PM 46.8820 67.4791 78° East  Level Estimated
10:12PM 46.9092 67.6716 78° East  Level Estimated
10:13PM 46.9360 67.8643 78° East  Level Estimated
10:14PM 46.9625 68.0573 79° East  Level Estimated
10:15PM 46.9887 68.2504 79° East  Level Estimated
10:16PM 47.0146 68.4437 79° East  Level Estimated
10:17PM 47.0401 68.6372 79° East  Level Estimated
10:18PM 47.0653 68.8308 79° East  Level Estimated
10:19PM 47.0902 69.0247 79° East  Level Estimated
10:20PM 47.1147 69.2187 79° East  Level Estimated
10:21PM 47.1390 69.4129 80° East  Level Estimated
10:22PM 47.1629 69.6073 80° East  Level Estimated
10:23PM 47.1865 69.8018 80° East  Level Estimated
10:24PM 47.2097 69.9966 80° East  Level Estimated
10:25PM 47.2326 70.1915 80° East  Level Estimated
10:26PM 47.2552 70.3865 80° East  Level Estimated
10:27PM 47.2774 70.5818 80° East  Level Estimated
10:28PM 47.2994 70.7772 81° East  Level Estimated
10:29PM 47.3209 70.9727 81° East  Level Estimated
10:30PM 47.3422 71.1684 81° East  Level Estimated
10:31PM 47.3631 71.3643 81° East  Level Estimated
10:32PM 47.3837 71.5603 81° East  Level Estimated
10:33PM 47.4039 71.7565 81° East  Level Estimated
10:34PM 47.4239 71.9528 81° East  Level Estimated
10:35PM 47.4434 72.1493 82° East  Level Estimated
10:36PM 47.4627 72.3459 82° East  Level Estimated
10:37PM 47.4816 72.5426 82° East  Level Estimated
10:38PM 47.5002 72.7395 82° East  Level Estimated
10:39PM 47.5184 72.9366 82° East  Level Estimated
10:40PM 47.5363 73.1338 82° East  Level Estimated
10:41PM 47.5538 73.3311 82° East  Level Estimated
10:42PM 47.5711 73.5285 83° East  Level Estimated
10:43PM 47.5880 73.7261 83° East  Level Estimated
10:44PM 47.6045 73.9238 83° East  Level Estimated
10:45PM 47.6207 74.1216 83° East  Level Estimated
10:46PM 47.6366 74.3195 83° East  Level Estimated
10:47PM 47.6521 74.5176 83° East  Level Estimated
10:48PM 47.6673 74.7158 83° East  Level Estimated
10:49PM 47.6821 74.9140 84° East  Level Estimated
10:50PM 47.6966 75.1124 84° East  Level Estimated
10:51PM 47.7107 75.3110 84° East  Level Estimated
10:52PM 47.7245 75.5096 84° East  Level Estimated
10:53PM 47.7380 75.7083 84° East  Level Estimated
10:54PM 47.7511 75.9071 84° East  Level Estimated
10:55PM 47.7639 76.1060 84° East  Level Estimated
10:56PM 47.7764 76.3050 85° East  Level Estimated
10:57PM 47.7884 76.5041 85° East  Level Estimated
10:58PM 47.8002 76.7033 85° East  Level Estimated
10:59PM 47.8116 76.9026 85° East  Level Estimated
11:00PM 47.8227 77.1020 85° East  Level Estimated
11:01PM 47.8334 77.3015 85° East  Level Estimated
11:02PM 47.8437 77.5010 85° East  Level Estimated
11:03PM 47.8538 77.7006 86° East  Level Estimated
11:04PM 47.8634 77.9003 86° East  Level Estimated
11:05PM 47.8728 78.1001 86° East  Level Estimated
11:06PM 47.8817 78.2999 86° East  Level Estimated
11:07PM 47.8904 78.4998 86° East  Level Estimated
11:08PM 47.8987 78.6998 86° East  Level Estimated
11:09PM 47.9066 78.8998 87° East  Level Estimated
11:10PM 47.9142 79.0999 87° East  Level Estimated
11:11PM 47.9215 79.3001 87° East  Level Estimated
11:12PM 47.9284 79.5003 87° East  Level Estimated
11:13PM 47.9349 79.7005 87° East  Level Estimated
11:14PM 47.9411 79.9008 87° East  Level Estimated
11:15PM 47.9470 80.1012 87° East  Level Estimated
11:16PM 47.9525 80.3016 88° East  Level Estimated
11:17PM 47.9576 80.5020 88° East  Level Estimated
11:18PM 47.9624 80.7025 88° East  Level Estimated
11:19PM 47.9669 80.9030 88° East  Level Estimated
11:20PM 47.9710 81.1036 88° East  Level Estimated
11:21PM 47.9748 81.3042 88° East  Level Estimated
11:22PM 47.9782 81.5048 88° East  Level Estimated
11:23PM 47.9812 81.7054 89° East  Level Estimated
11:24PM 47.9840 81.9061 89° East  Level Estimated
11:25PM 47.9863 82.1067 89° East  Level Estimated
11:26PM 47.9883 82.3074 89° East  Level Estimated
11:27PM 47.9900 82.5081 89° East  Level Estimated
11:28PM 47.9913 82.7088 89° East  Level Estimated
11:29PM 47.9923 82.9096 90° East  Level Estimated
11:30PM 47.9929 83.1103 90° East  Level Estimated
11:31PM 47.9931 83.3110 90° East  Level Estimated
11:32PM 47.9931 83.5117 90° East  Level Estimated
11:33PM 47.9926 83.7125 90° East  Level Estimated
11:34PM 47.9919 83.9132 90° East  Level Estimated
11:35PM 47.9907 84.1139 90° East  Level Estimated
11:36PM 47.9893 84.3146 91° East  Level Estimated
11:37PM 47.9874 84.5153 91° East  Level Estimated
11:38PM 47.9852 84.7160 91° East  Level Estimated
11:39PM 47.9827 84.9167 91° East  Level Estimated
11:40PM 47.9798 85.1173 91° East  Level Estimated
11:41PM 47.9766 85.3179 91° East  Level Estimated
11:42PM 47.9730 85.5185 91° East  Level Estimated
11:43PM 47.9691 85.7191 92° East  Level Estimated
11:44PM 47.9648 85.9196 92° East  Level Estimated
11:45PM 47.9602 86.1201 92° East  Level Estimated
11:46PM 47.9552 86.3206 92° East  Level Estimated
11:47PM 47.9499 86.5210 92° East  Level Estimated
11:48PM 47.9442 86.7214 92° East  Level Estimated
11:49PM 47.9382 86.9217 92° East  Level Estimated
11:50PM 47.9318 87.1220 93° East  Level Estimated
11:51PM 47.9251 87.3222 93° East  Level Estimated
11:52PM 47.9180 87.5224 93° East  Level Estimated
11:53PM 47.9106 87.7225 93° East  Level Estimated
11:54PM 47.9029 87.9226 93° East  Level Estimated
11:55PM 47.8947 88.1226 93° East  Level Estimated
11:56PM 47.8863 88.3225 94° East  Level Estimated
11:57PM 47.8775 88.5224 94° East  Level Estimated
11:58PM 47.8683 88.7222 94° East  Level Estimated
11:59PM 47.8588 88.9219 94° East  Level Estimated
12:00AM 47.8490 89.1216 94° East  Level Estimated
12:01AM 47.8388 89.3212 94° East  Level Estimated
12:02AM 47.8283 89.5207 94° East  Level Estimated
12:03AM 47.8174 89.7201 95° East  Level Estimated
12:04AM 47.8062 89.9194 95° East  Level Estimated
12:05AM 47.7946 90.1187 95° East  Level Estimated
12:06AM 47.7827 90.3178 95° East  Level Estimated
12:07AM 47.7704 90.5169 95° East  Level Estimated
12:08AM 47.7578 90.7158 95° East  Level Estimated
12:09AM 47.7449 90.9147 95° East  Level Estimated
12:10AM 47.7316 91.1135 96° East  Level Estimated
12:11AM 47.7180 91.3121 96° East  Level Estimated
12:12AM 47.7040 91.5107 96° East  Level Estimated
12:13AM 47.6897 91.7092 96° East  Level Estimated
12:14AM 47.6750 91.9075 96° East  Level Estimated
12:15AM 47.6600 92.1057 96° East  Level Estimated
12:16AM 47.6447 92.3038 96° East  Level Estimated
12:17AM 47.6290 92.5018 97° East  Level Estimated
12:18AM 47.6130 92.6997 97° East  Level Estimated
12:19AM 47.5966 92.8975 97° East  Level Estimated
12:20AM 47.5799 93.0951 97° East  Level Estimated
12:21AM 47.5629 93.2926 97° East  Level Estimated
12:22AM 47.5455 93.4900 97° East  Level Estimated
12:23AM 47.5278 93.6872 98° East  Level Estimated
12:24AM 47.5097 93.8843 98° East  Level Estimated
12:25AM 47.4913 94.0813 98° East  Level Estimated
12:26AM 47.4726 94.2781 98° East  Level Estimated
12:27AM 47.4535 94.4748 98° East  Level Estimated
12:28AM 47.4341 94.6714 98° East  Level Estimated
12:29AM 47.4144 94.8678 98° East  Level Estimated
12:30AM 47.3943 95.0640 99° East  Level Estimated
12:31AM 47.3739 95.2601 99° East  Level Estimated
12:32AM 47.3531 95.4561 99° East  Level Estimated
12:33AM 47.3320 95.6519 99° East  Level Estimated
12:34AM 47.3106 95.8475 99° East  Level Estimated
12:35AM 47.2889 96.0430 99° East  Level Estimated
12:36AM 47.2668 96.2383 99° East  Level Estimated
12:37AM 47.2444 96.4334 100° East  Level Estimated
12:38AM 47.2217 96.6284 100° East  Level Estimated
12:39AM 47.1986 96.8232 100° East  Level Estimated
12:40AM 47.1752 97.0179 100° East  Level Estimated
12:41AM 47.1515 97.2123 100° East  Level Estimated
12:42AM 47.1274 97.4066 100° East  Level Estimated
12:43AM 47.1030 97.6008 100° East  Level Estimated
12:44AM 47.0783 97.7947 101° East  Level Estimated
12:45AM 47.0533 97.9885 101° East  Level Estimated
12:46AM 47.0279 98.1821 101° East  Level Estimated
12:47AM 47.0022 98.3754 101° East  Level Estimated
12:48AM 46.9762 98.5686 101° East  Level Estimated
12:49AM 46.9498 98.7617 101° East  Level Estimated
12:50AM 46.9232 98.9545 101° East  Level Estimated
12:51AM 46.8962 99.1471 102° East  Level Estimated
12:52AM 46.8689 99.3395 102° East  Level Estimated
12:53AM 46.8412 99.5318 102° East  Level Estimated
12:54AM 46.8133 99.7238 102° East  Level Estimated
12:55AM 46.7850 99.9157 102° East  Level Estimated
12:56AM 46.7564 100.1073 102° East  Level Estimated
12:57AM 46.7275 100.2987 102° East  Level Estimated
12:58AM 46.6982 100.4900 103° East  Level Estimated
12:59AM 46.6687 100.6810 103° East  Level Estimated
01:00AM 46.6388 100.8718 103° East  Level Estimated
01:01AM 46.6086 101.0624 103° East  Level Estimated
01:02AM 46.5781 101.2528 103° East  Level Estimated
01:03AM 46.5473 101.4429 103° East  Level Estimated
01:04AM 46.5162 101.6329 103° East  Level Estimated
01:05AM 46.4847 101.8226 103° East  Level Estimated
01:06AM 46.4529 102.0121 104° East  Level Estimated
01:07AM 46.4209 102.2014 104° East  Level Estimated
01:08AM 46.3885 102.3905 104° East  Level Estimated
01:09AM 46.3558 102.5793 104° East  Level Estimated
01:10AM 46.3228 102.7680 104° East  Level Estimated
01:11AM 46.2894 102.9563 104° East  Level Estimated
01:12AM 46.2558 103.1445 104° East  Level Estimated
01:13AM 46.2219 103.3324 105° East  Level Estimated
01:14AM 46.1876 103.5201 105° East  Level Estimated
01:15AM 46.1531 103.7076 105° East  Level Estimated
01:16AM 46.1182 103.8948 105° East  Level Estimated
01:17AM 46.0831 104.0818 105° East  Level Estimated
01:18AM 46.0476 104.2685 105° East  Level Estimated
01:19AM 46.0118 104.4550 105° East  Level Estimated
01:20AM 45.9757 104.6413 106° East  Level Estimated
01:21AM 45.9394 104.8273 106° East  Level Estimated
01:22AM 45.9027 105.0131 106° East  Level Estimated
01:23AM 45.8657 105.1986 106° East  Level Estimated
01:24AM 45.8284 105.3839 106° East  Level Estimated
01:25AM 45.7909 105.5689 106° East  Level Estimated
01:26AM 45.7530 105.7537 106° East  Level Estimated
01:27AM 45.7148 105.9382 106° East  Level Estimated
01:28AM 45.6763 106.1225 107° East  Level Estimated
01:29AM 45.6376 106.3065 107° East  Level Estimated
01:30AM 45.5985 106.4903 107° East  Level Estimated
01:31AM 45.5592 106.6738 107° East  Level Estimated
01:32AM 45.5195 106.8570 107° East  Level Estimated
01:33AM 45.4796 107.0400 107° East  Level Estimated
01:34AM 45.4394 107.2227 107° East  Level Estimated
01:35AM 45.3988 107.4052 107° East  Level Estimated
01:36AM 45.3580 107.5874 108° East  Level Estimated
01:37AM 45.3169 107.7694 108° East  Level Estimated
01:38AM 45.2755 107.9510 108° East  Level Estimated
01:39AM 45.2338 108.1324 108° East  Level Estimated
01:40AM 45.1919 108.3136 108° East  Level Estimated
01:41AM 45.1496 108.4945 108° East  Level Estimated
01:42AM 45.1071 108.6751 108° East  Level Estimated
01:43AM 45.0643 108.8554 109° East  Level Estimated
01:44AM 45.0212 109.0355 109° East  Level Estimated
01:45AM 44.9778 109.2153 109° East  Level Estimated
01:46AM 44.9341 109.3948 109° East  Level Estimated
01:47AM 44.8902 109.5741 109° East  Level Estimated
01:48AM 44.8459 109.7531 109° East  Level Estimated
01:49AM 44.8014 109.9317 109° East  Level Estimated
01:50AM 44.7566 110.1102 109° East  Level Estimated
01:51AM 44.7116 110.2883 110° East  Level Estimated
01:52AM 44.6662 110.4662 110° East  Level Estimated
01:53AM 44.6206 110.6438 110° East  Level Estimated
01:54AM 44.5747 110.8211 110° East  Level Estimated
01:55AM 44.5286 110.9981 110° East  Level Estimated
01:56AM 44.4821 111.1749 110° East  Level Estimated
01:57AM 44.4354 111.3513 110° East  Level Estimated
01:58AM 44.3885 111.5275 110° East  Level Estimated
01:59AM 44.3412 111.7034 111° Southeast  Level Estimated
02:00AM 44.2937 111.8790 111° Southeast  Level Estimated
02:01AM 44.2459 112.0544 111° Southeast  Level Estimated
02:02AM 44.1978 112.2294 111° Southeast  Level Estimated
02:03AM 44.1495 112.4042 111° Southeast  Level Estimated
02:04AM 44.1009 112.5787 111° Southeast  Level Estimated
02:05AM 44.0521 112.7528 111° Southeast  Level Estimated
02:06AM 44.0029 112.9267 111° Southeast  Level Estimated
02:07AM 43.9536 113.1003 112° Southeast  Level Estimated
02:08AM 43.9039 113.2737 112° Southeast  Level Estimated
02:09AM 43.8540 113.4467 112° Southeast  Level Estimated
02:10AM 43.8038 113.6194 112° Southeast  Level Estimated
02:11AM 43.7534 113.7919 112° Southeast  Level Estimated
02:12AM 43.7027 113.9641 112° Southeast  Level Estimated
02:13AM 43.6518 114.1359 112° Southeast  Level Estimated
02:14AM 43.6006 114.3075 112° Southeast  Level Estimated
02:15AM 43.5491 114.4788 112° Southeast  Level Estimated
02:16AM 43.4974 114.6498 113° Southeast  Level Estimated
02:17AM 43.4455 114.8205 113° Southeast  Level Estimated
02:18AM 43.3932 114.9909 113° Southeast  Level Estimated
02:19AM 43.3408 115.1610 113° Southeast  Level Estimated
02:20AM 43.2881 115.3308 113° Southeast  Level Estimated
02:21AM 43.2351 115.5003 113° Southeast  Level Estimated
02:22AM 43.1819 115.6695 113° Southeast  Level Estimated
02:23AM 43.1284 115.8385 113° Southeast  Level Estimated
02:24AM 43.0747 116.0071 114° Southeast  Level Estimated
02:25AM 43.0207 116.1754 114° Southeast  Level Estimated
02:26AM 42.9665 116.3435 114° Southeast  Level Estimated
02:26AM 40.3390 115.9690 114° Southeast 539 620 39,100  Level FlightAware
02:26AM 40.3380 116.1150 90° East 538 619 39,100  Level FlightAware
02:27AM 40.3360 116.2440 91° East 542 624 39,100  Level FlightAware
02:28AM 40.3350 116.3530 91° East 546 628 39,100  Level FlightAware
02:28AM 40.3330 116.4820 91° East 546 628 39,100  Level FlightAware
02:29AM 40.3320 116.5950 91° East 546 628 39,100  Level FlightAware
02:30AM 40.3300 116.7080 91° East 546 628 39,100  Level FlightAware
02:30AM 40.3290 116.8490 90° East 546 628 39,100  Level FlightAware
02:31AM 40.3270 116.9610 91° East 546 628 39,100  Level FlightAware
02:32AM 39.9920 116.8180 198° South 489 563 39,100  Level FlightAware
02:33AM 39.7510 116.8670 171° South 492 566 39,100  Level FlightAware
02:34AM 39.6830 116.8830 170° South 492 566 39,100  Level FlightAware
02:35AM 39.5860 116.9020 171° South 491 565 39,100  Level FlightAware
02:35AM 39.4910 116.9240 170° South 491 565 39,100  Level FlightAware
02:36AM 39.4150 116.9410 170° South 491 565 39,100  Level FlightAware
02:37AM 39.3390 116.9580 170° South 491 565 39,100  Level FlightAware
02:37AM 39.2630 116.9760 170° South 491 565 39,100  Level FlightAware
02:38AM 39.1870 116.9930 170° South 491 565 39,100  Level FlightAware
02:39AM 39.0920 117.0150 170° South 491 565 39,100  Level FlightAware
02:40AM 39.0160 117.0320 170° South 491 565 39,100  Level FlightAware
02:40AM 38.9390 117.0490 170° South 491 565 39,100  Level FlightAware
02:41AM 38.8630 117.0660 170° South 491 565 39,100  Level FlightAware
02:42AM 38.7870 117.0830 170° South 491 565 39,100  Level FlightAware
02:42AM 38.6920 117.1050 170° South 491 565 39,100  Level FlightAware
02:43AM 38.6160 117.1220 170° South 491 565 39,100  Level FlightAware
02:44AM 38.5400 117.1390 170° South 491 565 39,100  Level FlightAware
02:46AM 38.4967 117.4430 100° East  Level Estimated
02:47AM 38.4722 117.6118 100° East  Level Estimated
02:48AM 38.4476 117.7804 101° East  Level Estimated
02:49AM 38.4227 117.9490 101° East  Level Estimated
02:50AM 38.3975 118.1174 101° East  Level Estimated
02:51AM 38.3721 118.2857 101° East  Level Estimated
02:52AM 38.3465 118.4538 101° East  Level Estimated
02:53AM 38.3206 118.6219 101° East  Level Estimated
02:54AM 38.2945 118.7898 101° East  Level Estimated
02:55AM 38.2682 118.9576 101° East  Level Estimated
02:56AM 38.2416 119.1253 101° East  Level Estimated
02:57AM 38.2147 119.2929 101° East  Level Estimated
02:58AM 38.1877 119.4603 102° East  Level Estimated
02:59AM 38.1604 119.6276 102° East  Level Estimated
03:00AM 38.1329 119.7948 102° East  Level Estimated
03:01AM 38.1051 119.9619 102° East  Level Estimated
03:02AM 38.0771 120.1288 102° East  Level Estimated
03:03AM 38.0488 120.2956 102° East  Level Estimated
03:04AM 38.0203 120.4623 102° East  Level Estimated
03:05AM 37.9916 120.6288 102° East  Level Estimated
03:06AM 37.9627 120.7953 102° East  Level Estimated
03:07AM 37.9335 120.9615 102° East  Level Estimated
03:08AM 37.9041 121.1277 103° East  Level Estimated
03:09AM 37.8744 121.2937 103° East  Level Estimated
03:10AM 37.8445 121.4596 103° East  Level Estimated
03:11AM 37.8144 121.6253 103° East  Level Estimated
03:12AM 37.7840 121.7909 103° East  Level Estimated
03:13AM 37.7535 121.9564 103° East  Level Estimated
03:14AM 37.7227 122.1218 103° East  Level Estimated
03:15AM 37.6916 122.2870 103° East  Level Estimated
03:16AM 37.6604 122.4520 103° East  Level Estimated
03:17AM 37.6288 122.6170 104° East  Level Estimated
03:18AM 37.5971 122.7817 104° East  Level Estimated
03:19AM 37.5652 122.9464 104° East  Level Estimated
03:20AM 37.5330 123.1109 104° East  Level Estimated
03:21AM 37.5005 123.2752 104° East  Level Estimated
03:22AM 37.4679 123.4395 104° East  Level Estimated
03:23AM 37.4350 123.6035 104° East  Level Estimated
03:24AM 37.4019 123.7674 104° East  Level Estimated
03:25AM 37.3686 123.9312 104° East  Level Estimated
03:26AM 37.3350 124.0949 104° East  Level Estimated
03:27AM 37.3013 124.2584 105° East  Level Estimated
03:28AM 37.2673 124.4217 105° East  Level Estimated
03:28AM 37.2060 125.8940 105° East 41,000  Level FlightAware
03:28AM 37.2060 125.9260 90° East 560 644 41,000  Level FlightAware
03:29AM 37.2080 126.1030 89° East 557 641 41,000  Level FlightAware
03:30AM 37.2100 126.2540 89° East 557 641 41,000  Level FlightAware
03:30AM 37.2110 126.3800 89° East 558 642 41,000  Level FlightAware
03:31AM 37.2120 126.5740 90° East 551 634 41,000  Level FlightAware
03:32AM 37.2120 126.7060 90° East 549 632 41,000  Level FlightAware
03:33AM 37.2140 126.8630 89° East 548 631 41,000  Level FlightAware
03:33AM 37.2330 126.9850 79° East 550 633 41,000  Level FlightAware
03:34AM 37.2780 127.1210 67° East 552 635 41,000  Level FlightAware
03:35AM 37.3270 127.2290 60° Northeast 547 629 41,000  Level FlightAware
03:36AM 37.3880 127.3330 54° Northeast 546 628 41,000  Level FlightAware
03:36AM 37.4570 127.4500 53° Northeast 545 627 41,000  Level FlightAware
03:37AM 37.5080 127.5590 59° Northeast 551 634 41,000  Level FlightAware
03:38AM 37.5370 127.6990 75° East 551 634 41,000  Level FlightAware
03:38AM 37.5580 127.8240 78° East 550 633 41,000  Level FlightAware
03:39AM 37.5780 127.9510 79° East 548 631 41,000  Level FlightAware
03:40AM 37.6000 128.0900 79° East 547 629 41,000  Level FlightAware
03:40AM 37.6190 128.2120 79° East 547 629 41,000  Level FlightAware
03:41AM 37.6410 128.3560 79° East 545 627 41,000  Level FlightAware
03:42AM 37.6600 128.4810 79° East 545 627 41,000  Level FlightAware
03:42AM 37.6750 128.5790 79° East 548 631 41,000  Level FlightAware
03:43AM 37.6980 128.7290 79° East 548 631 41,000  Level FlightAware
03:44AM 37.7140 128.8360 79° East 548 631 41,000  Level FlightAware
03:45AM 37.7300 128.9430 79° East 548 631 41,000  Level FlightAware
03:45AM 37.7470 129.0500 79° East 548 631 41,000  Level FlightAware
03:46AM 37.7630 129.1570 79° East 548 631 41,000  Level FlightAware
03:47AM 37.7840 129.2910 79° East 548 631 41,000  Level FlightAware
03:47AM 37.8000 129.3980 79° East 548 631 41,000  Level FlightAware
03:48AM 37.8170 129.5050 79° East 548 631 41,000  Level FlightAware
03:49AM 37.8330 129.6120 79° East 548 631 41,000  Level FlightAware
03:49AM 37.8500 129.7190 79° East 548 631 41,000  Level FlightAware
03:50AM 37.8700 129.8530 79° East 548 631 41,000  Level FlightAware
03:51AM 37.8870 129.9600 79° East 548 631 41,000  Level FlightAware
03:52AM 37.9030 130.0680 79° East 548 631 41,000  Level FlightAware
03:52AM 37.9190 130.1750 79° East 548 631 41,000  Level FlightAware
03:55AM 37.7314 130.4678 129° Southeast  Level Estimated
03:56AM 37.6466 130.5994 129° Southeast  Level Estimated
03:57AM 37.5616 130.7307 129° Southeast  Level Estimated
03:58AM 37.4764 130.8617 129° Southeast  Level Estimated
03:59AM 37.3911 130.9924 129° Southeast  Level Estimated
03:59AM 36.5410 131.1010 129° Southeast 508 585 41,000  Level FlightAware
03:59AM 36.4840 131.2120 123° Southeast 509 586 41,000  Level FlightAware
04:00AM 36.4220 131.3340 122° Southeast 508 585 41,000  Level FlightAware
04:02AM 36.2860 131.6040 122° Southeast 499 574 41,000  Level FlightAware
04:03AM 36.1970 131.7830 122° Southeast 492 566 41,000 -240 Level FlightAware
04:04AM 36.1300 131.9160 122° Southeast 494 568 40,500 -780 Descending FlightAware
04:05AM 36.0760 132.0230 122° Southeast 486 559 39,700 -1,020 Descending FlightAware
04:06AM 36.0040 132.1670 122° Southeast 498 573 38,800 -960 Descending FlightAware
04:08AM 35.8820 132.4070 122° Southeast 493 567 37,200 -660 Descending FlightAware
04:09AM 35.7900 132.5870 122° Southeast 495 570 37,000 -300 Descending FlightAware
04:10AM 35.7100 132.7450 122° Southeast 501 577 36,500 -660 Descending FlightAware
04:11AM 35.6540 132.8550 122° Southeast 512 589 35,800 -960 Descending FlightAware
04:13AM 35.5336 133.0969 121° Southeast  Level Estimated
04:13AM 35.5070 133.1580 121° Southeast 525 604 33,900  Level FlightAware
04:14AM 35.4310 133.3620 115° Southeast 526 605 32,600 -1,380 Descending FlightAware
04:16AM 35.3140 133.5880 122° Southeast 526 605 30,200 -2,160 Descending FlightAware
04:18AM 35.1712 133.8601 123° Southeast  Level Estimated
04:18AM 35.0970 133.8600 123° Southeast 488 562 24,600  Level FlightAware
04:18AM 35.0360 133.9360 134° Southeast 471 542 23,200 -2,280 Descending FlightAware
04:19AM 34.9810 134.0040 135° Southeast 464 534 21,600 -2,940 Descending FlightAware
04:20AM 34.8960 134.0680 148° Southeast 390 449 19,100 -2,940 Descending FlightAware
04:21AM 34.7720 134.0900 172° South 377 434 16,000 -1,800 Descending FlightAware
04:22AM 34.6510 134.1110 172° South 374 430 14,900 -1,500 Descending FlightAware
04:24AM 34.5310 134.1740 157° South 370 426 12,300 -2,100 Descending FlightAware
04:24AM 34.4660 134.2250 147° Southeast 340 391 10,600 -1,500 Descending FlightAware
04:25AM 34.4150 134.2680 145° Southeast 319 367 10,200 -300 Descending FlightAware
04:26AM 34.3610 134.3140 145° Southeast 313 360 10,200  Level FlightAware
04:26AM 34.3120 134.3530 147° Southeast 312 359 10,200 -180 Level FlightAware
04:27AM 34.2740 134.3870 144° Southeast 319 367 10,000 -1,200 Descending FlightAware
04:29AM 34.2940 134.5670 82° East 322 371 7,600 -1,260 Descending FlightAware
04:29AM 34.3180 134.6140 58° Northeast 323 372 7,200 -360 Descending FlightAware
04:30AM 34.3470 134.6730 59° Northeast 327 376 7,200  Level FlightAware
04:30AM 34.3570 134.6940 60° Northeast 327 376 7,200  Level FlightAware
04:31AM 34.3840 134.7470 58° Northeast 327 376 7,200  Level FlightAware
04:31AM 34.4030 134.7870 60° Northeast 325 374 7,200 -360 Level FlightAware
04:32AM 34.4280 134.8360 58° Northeast 326 375 6,900 -840 Descending FlightAware
04:32AM 34.4430 134.8680 60° Northeast 326 375 6,500 -660 Descending FlightAware
04:32AM 34.4690 134.9210 59° Northeast 303 349 6,300 -840 Descending FlightAware
04:33AM 34.4910 134.9650 59° Northeast 302 348 5,600 -1,320 Descending FlightAware
04:33AM 34.5080 135.0010 60° Northeast 302 348 5,100 -780 Descending FlightAware
04:34AM 34.5290 135.0440 59° Northeast 293 337 4,900 -420 Descending FlightAware
04:34AM 34.5370 135.0600 59° Northeast 286 329 4,800 -300 Descending FlightAware
04:35AM 34.5560 135.0980 59° Northeast 268 308 4,700 -480 Descending FlightAware
04:35AM 34.5750 135.1370 59° Northeast 264 304 4,400 -600 Descending FlightAware
04:35AM 34.5900 135.1690 60° Northeast 252 290 4,200 -240 Descending FlightAware
04:36AM 34.6050 135.2030 62° Northeast 230 265 4,200  Level FlightAware
04:36AM 34.6060 135.2220 86° East 203 234 4,200  Level FlightAware
04:37AM 34.6060 135.2550 90° East 191 220 4,200 -240 Level FlightAware
04:37AM 34.6050 135.2820 93° East 191 220 4,000 -660 Descending FlightAware
04:38AM 34.6040 135.3140 92° East 189 217 3,600 -660 Descending FlightAware
04:38AM 34.6030 135.3400 93° East 175 201 3,400 -780 Descending FlightAware
04:38AM 34.5970 135.3510 124° Southeast 159 183 3,100 -960 Descending FlightAware
04:38AM 34.5930 135.3550 141° Southeast 153 176 3,000 -1,200 Descending FlightAware
04:39AM 34.5740 135.3660 155° Southeast 155 178 2,300 -660 Descending FlightAware
04:40AM 34.5400 135.3670 179° South 154 177 2,200 -300 Descending FlightAware
04:40AM 34.5230 135.3590 201° Southwest 152 175 2,000 -660 Descending FlightAware
04:41AM 34.5030 135.3490 202° Southwest 153 176 1,600 -720 Descending FlightAware
04:41AM 34.4940 135.3430 209° Southwest 150 173 1,500 -300 Descending FlightAware
04:41AM 34.4820 135.3260 229° Southwest 137 158 1,400 -180 Descending FlightAware
04:42AM 34.4760 135.3160 234° Southwest 142 163 1,400 -360 Level FlightAware
04:42AM 34.4680 135.3050 229° Southwest 137 158 1,200 -300 Descending FlightAware
04:42AM 34.4590 135.2910 232° Southwest 137 158 1,200  Level FlightAware
04:45AM 34.4273 135.2441 231° Southwest  Level Estimated
04:46AM 34.4273 135.2441 158° South  Level Estimated
04:47AM 34.4273 135.2441 158° South  Level Estimated
04:48AM 34.4273 135.2441 158° South  Level Estimated
04:49AM 34.4273 135.2441 158° South  Level Estimated
04:50AM 34.4273 135.2441 158° South  Level Estimated
04:51AM 34.4273 135.2441 158° South  Level Estimated
04:52AM 34.4273 135.2441 158° South  Level Estimated
04:53AM 34.4273 135.2441 158° South  Level Estimated
04:54AM 34.4273 135.2441 158° South  Level Estimated
04:55AM 34.4273 135.2441 158° South  Level Estimated
04:56AM 34.4273 135.2441 158° South  Level Estimated
04:57AM 34.4273 135.2441 158° South  Level Estimated
04:58AM 34.4273 135.2441 158° South  Level Estimated
04:59AM 34.4273 135.2441 158° South  Level Estimated
05:00AM 34.4273 135.2441 158° South  Level Estimated
05:01AM 34.4273 135.2441 158° South  Level Estimated